Pagrindinis puslapis
METAR-TAF:

METAR-TAF

Oro uostai :

Northway, Aliaska, Jungtinės Amerikos Valstijos

platuma: 62-57-40N, ilguma: 141-55-44W, Aukštis: 523 m

Dabartinis oras

Ataskaita buvo paskelbta 40 minutes, ne 03:53 UTC
Vėjas 3 kt iš Vakarų
Temperatūra 8°C
Drėgmė 93%
Slėgis 984 hPa
Matomumas: 16.1 km
Su prošvaistėmis ne aukštis 7500 ft
Apsiniaukę ne aukštis 9000 ft

METAR: PAOR 210353Z AUTO 28003KT 10SM BKN075 OVC090 08/07 A2905 RMK AO2 SLP850 T00780067 TSNO

Laikas: 20:33 (04:33 UTC)

Prognozė

Ataskaita buvo paskelbta 4 valandos ir 59 minutes, ne 23:34 UTC
Prognozė galioja nuo 21 metu 00 UTC su 21 metu 24 UTC
Vėjas 4 kt nuo kintamojo kryptimis
Matomumas: 9.7 km
Išsisklaidę debesys ne aukštis 2500 ft
Su prošvaistėmis ne aukštis 3500 ft
Apsiniaukę ne aukštis 5000 ft
lietus, rūkana

TAF: PAOR 202334Z 2100/2124 VRB04KT 6SM -RA BR SCT025 BKN035 OVC050

Orai ataskaitas ir orų prognozės (METAR, TAF).

turimą stotys yra geltonos ir raudonos taškus žemėlapyje.

Perkelti pele per norėdami pamatyti stoties vardą.

Tada spustelėkite, norėdami matyti oro stebėjimo ir prognozės.

Norėdami pakeisti žemėlapį: spustelėkite ant žalios mygtukų su juodo kryžiaus žemyn,; žalią mygtuką su brūkšneliu, jei norite nutolinti; arba žalių rodyklių gretimoms žemėlapius.


METAR-TAF: